sensor_id;sensor_type;location;lat;lon;timestamp;P1;durP1;ratioP1;P2;durP2;ratioP2
27543;SDS011;17996;51.056;3.656;2023-04-06T00:01:20;39.67;;;23.33;;
27543;SDS011;17996;51.056;3.656;2023-04-06T00:03:46;32.65;;;21.10;;
27543;SDS011;17996;51.056;3.656;2023-04-06T00:06:12;29.08;;;20.48;;
27543;SDS011;17996;51.056;3.656;2023-04-06T00:08:37;29.13;;;20.08;;
27543;SDS011;17996;51.056;3.656;2023-04-06T00:11:03;39.30;;;22.40;;
27543;SDS011;17996;51.056;3.656;2023-04-06T00:13:29;34.60;;;23.23;;
27543;SDS011;17996;51.056;3.656;2023-04-06T00:15:54;40.05;;;24.15;;
27543;SDS011;17996;51.056;3.656;2023-04-06T00:18:20;29.75;;;20.85;;
27543;SDS011;17996;51.056;3.656;2023-04-06T00:20:46;40.30;;;24.40;;
27543;SDS011;17996;51.056;3.656;2023-04-06T00:23:11;34.78;;;21.80;;
27543;SDS011;17996;51.056;3.656;2023-04-06T00:25:37;35.67;;;24.20;;
27543;SDS011;17996;51.056;3.656;2023-04-06T00:28:03;31.20;;;22.50;;
27543;SDS011;17996;51.056;3.656;2023-04-06T00:30:28;39.25;;;24.25;;
27543;SDS011;17996;51.056;3.656;2023-04-06T00:32:54;32.85;;;23.77;;
27543;SDS011;17996;51.056;3.656;2023-04-06T00:35:20;39.05;;;23.75;;
27543;SDS011;17996;51.056;3.656;2023-04-06T00:37:46;34.05;;;22.98;;
27543;SDS011;17996;51.056;3.656;2023-04-06T00:40:13;38.95;;;24.75;;
27543;SDS011;17996;51.056;3.656;2023-04-06T00:42:39;39.17;;;24.45;;
27543;SDS011;17996;51.056;3.656;2023-04-06T00:45:05;46.17;;;25.52;;
27543;SDS011;17996;51.056;3.656;2023-04-06T00:47:32;31.05;;;22.02;;
27543;SDS011;17996;51.056;3.656;2023-04-06T00:49:58;38.17;;;24.88;;
27543;SDS011;17996;51.056;3.656;2023-04-06T00:52:24;36.08;;;26.33;;
27543;SDS011;17996;51.056;3.656;2023-04-06T00:54:50;39.17;;;24.65;;
27543;SDS011;17996;51.056;3.656;2023-04-06T00:57:16;34.85;;;24.83;;
27543;SDS011;17996;51.056;3.656;2023-04-06T00:59:42;38.17;;;26.50;;
27543;SDS011;17996;51.056;3.656;2023-04-06T01:02:08;41.88;;;25.88;;
27543;SDS011;17996;51.056;3.656;2023-04-06T01:04:34;38.15;;;27.58;;
27543;SDS011;17996;51.056;3.656;2023-04-06T01:07:00;41.75;;;28.23;;
27543;SDS011;17996;51.056;3.656;2023-04-06T01:09:29;41.20;;;27.25;;
27543;SDS011;17996;51.056;3.656;2023-04-06T01:11:55;44.03;;;27.23;;
27543;SDS011;17996;51.056;3.656;2023-04-06T01:14:22;43.03;;;29.50;;
27543;SDS011;17996;51.056;3.656;2023-04-06T01:16:48;43.83;;;30.25;;
27543;SDS011;17996;51.056;3.656;2023-04-06T01:19:14;43.63;;;27.40;;
27543;SDS011;17996;51.056;3.656;2023-04-06T01:21:40;45.95;;;30.75;;
27543;SDS011;17996;51.056;3.656;2023-04-06T01:24:06;42.88;;;30.23;;
27543;SDS011;17996;51.056;3.656;2023-04-06T01:26:33;46.50;;;30.98;;
27543;SDS011;17996;51.056;3.656;2023-04-06T01:29:00;46.08;;;29.70;;
27543;SDS011;17996;51.056;3.656;2023-04-06T01:31:26;50.63;;;32.35;;
27543;SDS011;17996;51.056;3.656;2023-04-06T01:33:51;43.58;;;29.23;;
27543;SDS011;17996;51.056;3.656;2023-04-06T01:36:17;51.30;;;32.20;;
27543;SDS011;17996;51.056;3.656;2023-04-06T01:38:43;49.78;;;33.38;;
27543;SDS011;17996;51.056;3.656;2023-04-06T01:41:09;47.78;;;29.48;;
27543;SDS011;17996;51.056;3.656;2023-04-06T01:43:35;51.90;;;32.50;;
27543;SDS011;17996;51.056;3.656;2023-04-06T01:46:01;52.90;;;33.70;;
27543;SDS011;17996;51.056;3.656;2023-04-06T01:48:27;55.33;;;34.90;;
27543;SDS011;17996;51.056;3.656;2023-04-06T01:50:53;48.85;;;31.75;;
27543;SDS011;17996;51.056;3.656;2023-04-06T01:53:19;52.10;;;33.92;;
27543;SDS011;17996;51.056;3.656;2023-04-06T01:55:45;47.85;;;32.30;;
27543;SDS011;17996;51.056;3.656;2023-04-06T01:58:11;56.05;;;34.97;;
27543;SDS011;17996;51.056;3.656;2023-04-06T02:00:37;56.83;;;35.38;;
27543;SDS011;17996;51.056;3.656;2023-04-06T02:03:03;52.97;;;35.78;;
27543;SDS011;17996;51.056;3.656;2023-04-06T02:05:29;51.78;;;35.35;;
27543;SDS011;17996;51.056;3.656;2023-04-06T02:07:56;54.53;;;34.40;;
27543;SDS011;17996;51.056;3.656;2023-04-06T02:10:22;52.13;;;33.95;;
27543;SDS011;17996;51.056;3.656;2023-04-06T02:12:48;54.65;;;35.78;;
27543;SDS011;17996;51.056;3.656;2023-04-06T02:15:14;57.38;;;36.75;;
27543;SDS011;17996;51.056;3.656;2023-04-06T02:17:40;54.30;;;35.92;;
27543;SDS011;17996;51.056;3.656;2023-04-06T02:20:07;57.72;;;37.80;;
27543;SDS011;17996;51.056;3.656;2023-04-06T02:22:34;48.22;;;34.35;;
27543;SDS011;17996;51.056;3.656;2023-04-06T02:25:00;55.70;;;34.75;;
27543;SDS011;17996;51.056;3.656;2023-04-06T02:27:27;57.15;;;37.17;;
27543;SDS011;17996;51.056;3.656;2023-04-06T02:29:52;61.53;;;37.13;;
27543;SDS011;17996;51.056;3.656;2023-04-06T02:32:18;55.40;;;34.17;;
27543;SDS011;17996;51.056;3.656;2023-04-06T02:34:44;66.15;;;36.50;;
27543;SDS011;17996;51.056;3.656;2023-04-06T02:37:10;55.60;;;36.70;;
27543;SDS011;17996;51.056;3.656;2023-04-06T02:39:36;53.17;;;36.28;;
27543;SDS011;17996;51.056;3.656;2023-04-06T02:42:01;63.65;;;38.72;;
27543;SDS011;17996;51.056;3.656;2023-04-06T02:44:27;52.95;;;36.40;;
27543;SDS011;17996;51.056;3.656;2023-04-06T02:46:53;53.85;;;35.67;;
27543;SDS011;17996;51.056;3.656;2023-04-06T02:49:19;57.20;;;38.08;;
27543;SDS011;17996;51.056;3.656;2023-04-06T02:51:45;59.38;;;39.30;;
27543;SDS011;17996;51.056;3.656;2023-04-06T02:54:11;62.65;;;39.55;;
27543;SDS011;17996;51.056;3.656;2023-04-06T02:56:36;65.40;;;39.30;;
27543;SDS011;17996;51.056;3.656;2023-04-06T02:59:02;65.32;;;39.63;;
27543;SDS011;17996;51.056;3.656;2023-04-06T03:01:28;67.05;;;40.25;;
27543;SDS011;17996;51.056;3.656;2023-04-06T03:03:53;61.30;;;39.42;;
27543;SDS011;17996;51.056;3.656;2023-04-06T03:06:19;64.03;;;38.83;;
27543;SDS011;17996;51.056;3.656;2023-04-06T03:08:45;59.65;;;38.47;;
27543;SDS011;17996;51.056;3.656;2023-04-06T03:11:10;73.00;;;42.55;;
27543;SDS011;17996;51.056;3.656;2023-04-06T03:13:36;69.75;;;41.53;;
27543;SDS011;17996;51.056;3.656;2023-04-06T03:16:04;65.35;;;40.45;;
27543;SDS011;17996;51.056;3.656;2023-04-06T03:18:30;67.80;;;41.42;;
27543;SDS011;17996;51.056;3.656;2023-04-06T03:20:56;70.78;;;40.20;;
27543;SDS011;17996;51.056;3.656;2023-04-06T03:23:22;70.13;;;40.72;;
27543;SDS011;17996;51.056;3.656;2023-04-06T03:25:48;64.03;;;39.15;;
27543;SDS011;17996;51.056;3.656;2023-04-06T03:28:14;72.05;;;40.40;;
27543;SDS011;17996;51.056;3.656;2023-04-06T03:30:41;70.70;;;40.25;;
27543;SDS011;17996;51.056;3.656;2023-04-06T03:33:06;65.50;;;37.80;;
27543;SDS011;17996;51.056;3.656;2023-04-06T03:35:32;67.18;;;38.05;;
27543;SDS011;17996;51.056;3.656;2023-04-06T03:37:58;62.60;;;38.17;;
27543;SDS011;17996;51.056;3.656;2023-04-06T03:40:23;64.75;;;37.42;;
27543;SDS011;17996;51.056;3.656;2023-04-06T03:42:49;57.75;;;35.58;;
27543;SDS011;17996;51.056;3.656;2023-04-06T03:45:15;62.78;;;37.20;;
27543;SDS011;17996;51.056;3.656;2023-04-06T03:47:41;61.65;;;36.47;;
27543;SDS011;17996;51.056;3.656;2023-04-06T03:50:07;58.40;;;37.05;;
27543;SDS011;17996;51.056;3.656;2023-04-06T03:52:34;55.42;;;35.20;;
27543;SDS011;17996;51.056;3.656;2023-04-06T03:55:02;62.72;;;36.03;;
27543;SDS011;17996;51.056;3.656;2023-04-06T03:57:27;63.35;;;35.70;;
27543;SDS011;17996;51.056;3.656;2023-04-06T03:59:53;63.03;;;35.65;;
27543;SDS011;17996;51.056;3.656;2023-04-06T04:02:19;62.10;;;34.65;;
27543;SDS011;17996;51.056;3.656;2023-04-06T04:04:45;59.30;;;35.38;;
27543;SDS011;17996;51.056;3.656;2023-04-06T04:07:10;59.08;;;35.38;;
27543;SDS011;17996;51.056;3.656;2023-04-06T04:09:36;58.88;;;34.03;;
27543;SDS011;17996;51.056;3.656;2023-04-06T04:12:02;58.90;;;35.97;;
27543;SDS011;17996;51.056;3.656;2023-04-06T04:14:28;61.20;;;34.80;;
27543;SDS011;17996;51.056;3.656;2023-04-06T04:16:53;55.47;;;33.60;;
27543;SDS011;17996;51.056;3.656;2023-04-06T04:19:19;57.97;;;33.15;;
27543;SDS011;17996;51.056;3.656;2023-04-06T04:21:45;53.67;;;32.92;;
27543;SDS011;17996;51.056;3.656;2023-04-06T04:24:12;60.72;;;35.25;;
27543;SDS011;17996;51.056;3.656;2023-04-06T04:26:38;59.78;;;33.40;;
27543;SDS011;17996;51.056;3.656;2023-04-06T04:29:04;54.45;;;32.80;;
27543;SDS011;17996;51.056;3.656;2023-04-06T04:31:30;56.58;;;33.45;;
27543;SDS011;17996;51.056;3.656;2023-04-06T04:33:56;56.33;;;32.83;;
27543;SDS011;17996;51.056;3.656;2023-04-06T04:36:22;53.95;;;31.77;;
27543;SDS011;17996;51.056;3.656;2023-04-06T04:38:49;52.88;;;31.85;;
27543;SDS011;17996;51.056;3.656;2023-04-06T04:41:15;52.47;;;31.35;;
27543;SDS011;17996;51.056;3.656;2023-04-06T04:43:41;54.35;;;32.22;;
27543;SDS011;17996;51.056;3.656;2023-04-06T04:46:06;58.72;;;32.50;;
27543;SDS011;17996;51.056;3.656;2023-04-06T04:48:32;54.40;;;33.60;;
27543;SDS011;17996;51.056;3.656;2023-04-06T04:50:58;48.20;;;30.98;;
27543;SDS011;17996;51.056;3.656;2023-04-06T04:53:23;47.45;;;31.63;;
27543;SDS011;17996;51.056;3.656;2023-04-06T04:55:49;49.92;;;30.42;;
27543;SDS011;17996;51.056;3.656;2023-04-06T04:58:15;52.97;;;31.27;;
27543;SDS011;17996;51.056;3.656;2023-04-06T05:00:42;52.47;;;31.40;;
27543;SDS011;17996;51.056;3.656;2023-04-06T05:03:08;56.22;;;32.45;;
27543;SDS011;17996;51.056;3.656;2023-04-06T05:05:36;44.03;;;29.92;;
27543;SDS011;17996;51.056;3.656;2023-04-06T05:08:01;43.55;;;28.85;;
27543;SDS011;17996;51.056;3.656;2023-04-06T05:10:27;49.65;;;29.42;;
27543;SDS011;17996;51.056;3.656;2023-04-06T05:12:53;48.50;;;29.25;;
27543;SDS011;17996;51.056;3.656;2023-04-06T05:15:18;48.85;;;29.30;;
27543;SDS011;17996;51.056;3.656;2023-04-06T05:17:44;49.15;;;28.17;;
27543;SDS011;17996;51.056;3.656;2023-04-06T05:20:10;48.08;;;29.25;;
27543;SDS011;17996;51.056;3.656;2023-04-06T05:22:36;49.30;;;29.20;;
27543;SDS011;17996;51.056;3.656;2023-04-06T05:25:02;44.28;;;28.95;;
27543;SDS011;17996;51.056;3.656;2023-04-06T05:27:28;45.65;;;28.02;;
27543;SDS011;17996;51.056;3.656;2023-04-06T05:29:54;48.30;;;28.42;;
27543;SDS011;17996;51.056;3.656;2023-04-06T05:32:19;40.40;;;26.17;;
27543;SDS011;17996;51.056;3.656;2023-04-06T05:34:49;48.40;;;28.35;;
27543;SDS011;17996;51.056;3.656;2023-04-06T05:37:15;46.78;;;26.90;;
27543;SDS011;17996;51.056;3.656;2023-04-06T05:39:41;41.45;;;28.58;;
27543;SDS011;17996;51.056;3.656;2023-04-06T05:42:07;41.60;;;28.48;;
27543;SDS011;17996;51.056;3.656;2023-04-06T05:44:32;44.20;;;27.98;;
27543;SDS011;17996;51.056;3.656;2023-04-06T05:46:58;43.83;;;29.15;;
27543;SDS011;17996;51.056;3.656;2023-04-06T05:49:24;45.63;;;30.92;;
27543;SDS011;17996;51.056;3.656;2023-04-06T05:51:50;45.45;;;31.45;;
27543;SDS011;17996;51.056;3.656;2023-04-06T05:54:15;50.45;;;31.30;;
27543;SDS011;17996;51.056;3.656;2023-04-06T05:56:41;46.67;;;30.42;;
27543;SDS011;17996;51.056;3.656;2023-04-06T05:59:07;54.67;;;33.38;;
27543;SDS011;17996;51.056;3.656;2023-04-06T06:01:33;48.58;;;32.55;;
27543;SDS011;17996;51.056;3.656;2023-04-06T06:04:00;43.42;;;29.45;;
27543;SDS011;17996;51.056;3.656;2023-04-06T06:06:27;54.08;;;32.53;;
27543;SDS011;17996;51.056;3.656;2023-04-06T06:08:53;44.80;;;29.92;;
27543;SDS011;17996;51.056;3.656;2023-04-06T06:11:19;50.17;;;30.90;;
27543;SDS011;17996;51.056;3.656;2023-04-06T06:13:45;49.92;;;33.13;;
27543;SDS011;17996;51.056;3.656;2023-04-06T06:16:10;52.13;;;30.67;;
27543;SDS011;17996;51.056;3.656;2023-04-06T06:18:36;43.17;;;28.63;;
27543;SDS011;17996;51.056;3.656;2023-04-06T06:21:02;48.33;;;28.13;;
27543;SDS011;17996;51.056;3.656;2023-04-06T06:23:27;54.35;;;30.60;;
27543;SDS011;17996;51.056;3.656;2023-04-06T06:25:53;51.55;;;28.08;;
27543;SDS011;17996;51.056;3.656;2023-04-06T06:28:19;45.65;;;27.00;;
27543;SDS011;17996;51.056;3.656;2023-04-06T06:30:44;41.20;;;27.35;;
27543;SDS011;17996;51.056;3.656;2023-04-06T06:33:10;38.30;;;24.48;;
27543;SDS011;17996;51.056;3.656;2023-04-06T06:35:36;41.08;;;24.65;;
27543;SDS011;17996;51.056;3.656;2023-04-06T06:38:01;36.95;;;23.00;;
27543;SDS011;17996;51.056;3.656;2023-04-06T06:40:27;37.63;;;21.67;;
27543;SDS011;17996;51.056;3.656;2023-04-06T06:42:53;36.13;;;21.75;;
27543;SDS011;17996;51.056;3.656;2023-04-06T06:45:19;36.38;;;20.98;;
27543;SDS011;17996;51.056;3.656;2023-04-06T06:47:45;32.83;;;20.10;;
27543;SDS011;17996;51.056;3.656;2023-04-06T06:50:11;38.38;;;22.02;;
27543;SDS011;17996;51.056;3.656;2023-04-06T06:52:36;31.00;;;19.42;;
27543;SDS011;17996;51.056;3.656;2023-04-06T06:55:02;28.58;;;19.10;;
27543;SDS011;17996;51.056;3.656;2023-04-06T06:57:29;32.97;;;19.77;;
27543;SDS011;17996;51.056;3.656;2023-04-06T06:59:55;30.48;;;18.50;;
27543;SDS011;17996;51.056;3.656;2023-04-06T07:02:20;28.63;;;17.80;;
27543;SDS011;17996;51.056;3.656;2023-04-06T07:04:49;32.13;;;17.55;;
27543;SDS011;17996;51.056;3.656;2023-04-06T07:07:15;30.55;;;17.80;;
27543;SDS011;17996;51.056;3.656;2023-04-06T07:09:40;27.80;;;16.92;;
27543;SDS011;17996;51.056;3.656;2023-04-06T07:12:06;25.73;;;16.38;;
27543;SDS011;17996;51.056;3.656;2023-04-06T07:14:32;25.55;;;15.98;;
27543;SDS011;17996;51.056;3.656;2023-04-06T07:16:57;27.10;;;16.13;;
27543;SDS011;17996;51.056;3.656;2023-04-06T07:19:23;24.30;;;14.43;;
27543;SDS011;17996;51.056;3.656;2023-04-06T07:21:48;24.90;;;15.25;;
27543;SDS011;17996;51.056;3.656;2023-04-06T07:24:14;19.90;;;14.13;;
27543;SDS011;17996;51.056;3.656;2023-04-06T07:26:42;24.48;;;14.05;;
27543;SDS011;17996;51.056;3.656;2023-04-06T07:29:08;19.85;;;12.02;;
27543;SDS011;17996;51.056;3.656;2023-04-06T07:31:33;23.92;;;11.95;;
27543;SDS011;17996;51.056;3.656;2023-04-06T07:34:01;26.45;;;13.15;;
27543;SDS011;17996;51.056;3.656;2023-04-06T07:36:26;20.80;;;11.80;;
27543;SDS011;17996;51.056;3.656;2023-04-06T07:38:52;18.40;;;10.90;;
27543;SDS011;17996;51.056;3.656;2023-04-06T07:41:18;20.08;;;11.25;;
27543;SDS011;17996;51.056;3.656;2023-04-06T07:43:43;20.35;;;10.82;;
27543;SDS011;17996;51.056;3.656;2023-04-06T07:46:09;18.52;;;11.02;;
27543;SDS011;17996;51.056;3.656;2023-04-06T07:48:35;16.83;;;10.63;;
27543;SDS011;17996;51.056;3.656;2023-04-06T07:51:03;17.02;;;10.63;;
27543;SDS011;17996;51.056;3.656;2023-04-06T07:53:30;17.90;;;9.98;;
27543;SDS011;17996;51.056;3.656;2023-04-06T07:55:56;14.85;;;10.00;;
27543;SDS011;17996;51.056;3.656;2023-04-06T07:58:23;16.00;;;10.65;;
27543;SDS011;17996;51.056;3.656;2023-04-06T08:00:49;18.23;;;10.13;;
27543;SDS011;17996;51.056;3.656;2023-04-06T08:03:15;16.83;;;9.93;;
27543;SDS011;17996;51.056;3.656;2023-04-06T08:05:41;16.25;;;9.43;;
27543;SDS011;17996;51.056;3.656;2023-04-06T08:08:07;15.68;;;9.25;;
27543;SDS011;17996;51.056;3.656;2023-04-06T08:10:33;15.25;;;9.40;;
27543;SDS011;17996;51.056;3.656;2023-04-06T08:13:00;14.45;;;9.57;;
27543;SDS011;17996;51.056;3.656;2023-04-06T08:15:25;16.67;;;9.02;;
27543;SDS011;17996;51.056;3.656;2023-04-06T08:17:51;16.65;;;9.70;;
27543;SDS011;17996;51.056;3.656;2023-04-06T08:20:17;14.82;;;10.32;;
27543;SDS011;17996;51.056;3.656;2023-04-06T08:22:43;17.52;;;9.82;;
27543;SDS011;17996;51.056;3.656;2023-04-06T08:25:08;20.50;;;10.57;;
27543;SDS011;17996;51.056;3.656;2023-04-06T08:27:34;21.15;;;9.77;;
27543;SDS011;17996;51.056;3.656;2023-04-06T08:30:00;22.13;;;11.60;;
27543;SDS011;17996;51.056;3.656;2023-04-06T08:32:26;17.35;;;11.27;;
27543;SDS011;17996;51.056;3.656;2023-04-06T08:34:55;17.42;;;11.63;;
27543;SDS011;17996;51.056;3.656;2023-04-06T08:37:21;17.15;;;11.07;;
27543;SDS011;17996;51.056;3.656;2023-04-06T08:39:47;18.13;;;10.90;;
27543;SDS011;17996;51.056;3.656;2023-04-06T08:42:19;20.48;;;11.75;;
27543;SDS011;17996;51.056;3.656;2023-04-06T08:44:47;20.00;;;12.20;;
27543;SDS011;17996;51.056;3.656;2023-04-06T08:47:16;19.95;;;12.77;;
27543;SDS011;17996;51.056;3.656;2023-04-06T08:49:41;18.40;;;12.23;;
27543;SDS011;17996;51.056;3.656;2023-04-06T08:52:09;21.75;;;12.60;;
27543;SDS011;17996;51.056;3.656;2023-04-06T08:54:37;19.23;;;13.55;;
27543;SDS011;17996;51.056;3.656;2023-04-06T08:57:04;18.02;;;13.20;;
27543;SDS011;17996;51.056;3.656;2023-04-06T08:59:31;20.58;;;12.88;;
27543;SDS011;17996;51.056;3.656;2023-04-06T09:01:57;20.20;;;13.50;;
27543;SDS011;17996;51.056;3.656;2023-04-06T09:04:24;27.92;;;14.18;;
27543;SDS011;17996;51.056;3.656;2023-04-06T09:06:51;20.48;;;13.77;;
27543;SDS011;17996;51.056;3.656;2023-04-06T09:09:18;25.30;;;15.40;;
27543;SDS011;17996;51.056;3.656;2023-04-06T09:14:11;21.48;;;14.15;;
27543;SDS011;17996;51.056;3.656;2023-04-06T09:16:44;24.33;;;14.88;;
27543;SDS011;17996;51.056;3.656;2023-04-06T09:19:10;21.73;;;15.20;;
27543;SDS011;17996;51.056;3.656;2023-04-06T09:21:37;22.85;;;14.88;;
27543;SDS011;17996;51.056;3.656;2023-04-06T09:24:05;23.58;;;14.93;;
27543;SDS011;17996;51.056;3.656;2023-04-06T09:26:32;25.67;;;15.30;;
27543;SDS011;17996;51.056;3.656;2023-04-06T09:29:09;30.17;;;16.42;;
27543;SDS011;17996;51.056;3.656;2023-04-06T09:31:34;23.83;;;15.48;;
27543;SDS011;17996;51.056;3.656;2023-04-06T09:34:00;24.30;;;15.32;;
27543;SDS011;17996;51.056;3.656;2023-04-06T09:36:34;22.52;;;15.35;;
27543;SDS011;17996;51.056;3.656;2023-04-06T09:39:05;22.70;;;16.47;;
27543;SDS011;17996;51.056;3.656;2023-04-06T09:41:32;22.30;;;15.95;;
27543;SDS011;17996;51.056;3.656;2023-04-06T09:44:05;25.25;;;17.00;;
27543;SDS011;17996;51.056;3.656;2023-04-06T09:46:39;29.17;;;18.45;;
27543;SDS011;17996;51.056;3.656;2023-04-06T09:49:07;24.58;;;16.63;;
27543;SDS011;17996;51.056;3.656;2023-04-06T09:51:40;21.50;;;15.57;;
27543;SDS011;17996;51.056;3.656;2023-04-06T09:54:18;25.33;;;17.20;;
27543;SDS011;17996;51.056;3.656;2023-04-06T09:56:47;22.00;;;15.20;;
27543;SDS011;17996;51.056;3.656;2023-04-06T10:05:20;22.15;;;16.38;;
27543;SDS011;17996;51.056;3.656;2023-04-06T10:07:46;22.95;;;16.75;;
27543;SDS011;17996;51.056;3.656;2023-04-06T10:10:15;27.05;;;16.33;;
27543;SDS011;17996;51.056;3.656;2023-04-06T10:12:41;22.42;;;16.27;;
27543;SDS011;17996;51.056;3.656;2023-04-06T10:15:09;24.40;;;15.75;;
27543;SDS011;17996;51.056;3.656;2023-04-06T10:17:35;28.42;;;16.77;;
27543;SDS011;17996;51.056;3.656;2023-04-06T10:20:16;22.52;;;15.38;;
27543;SDS011;17996;51.056;3.656;2023-04-06T10:25:31;23.15;;;15.98;;
27543;SDS011;17996;51.056;3.656;2023-04-06T10:30:34;22.35;;;14.90;;
27543;SDS011;17996;51.056;3.656;2023-04-06T10:33:01;19.33;;;14.85;;
27543;SDS011;17996;51.056;3.656;2023-04-06T10:35:38;21.75;;;14.30;;
27543;SDS011;17996;51.056;3.656;2023-04-06T10:38:04;20.73;;;14.02;;
27543;SDS011;17996;51.056;3.656;2023-04-06T10:40:30;18.58;;;14.60;;
27543;SDS011;17996;51.056;3.656;2023-04-06T10:43:07;22.13;;;14.18;;
27543;SDS011;17996;51.056;3.656;2023-04-06T10:45:34;19.45;;;14.20;;
27543;SDS011;17996;51.056;3.656;2023-04-06T10:48:00;19.58;;;13.77;;
27543;SDS011;17996;51.056;3.656;2023-04-06T10:50:37;15.00;;;13.00;;
27543;SDS011;17996;51.056;3.656;2023-04-06T10:53:05;17.45;;;13.23;;
27543;SDS011;17996;51.056;3.656;2023-04-06T10:55:31;20.00;;;14.10;;
27543;SDS011;17996;51.056;3.656;2023-04-06T10:57:57;16.95;;;14.25;;
27543;SDS011;17996;51.056;3.656;2023-04-06T11:00:23;16.63;;;14.32;;
27543;SDS011;17996;51.056;3.656;2023-04-06T11:02:49;20.23;;;14.32;;
27543;SDS011;17996;51.056;3.656;2023-04-06T11:05:15;19.42;;;14.20;;
27543;SDS011;17996;51.056;3.656;2023-04-06T11:07:41;16.58;;;13.00;;
27543;SDS011;17996;51.056;3.656;2023-04-06T11:10:07;18.10;;;14.10;;
27543;SDS011;17996;51.056;3.656;2023-04-06T11:12:33;18.58;;;14.57;;
27543;SDS011;17996;51.056;3.656;2023-04-06T11:15:00;15.77;;;13.25;;
27543;SDS011;17996;51.056;3.656;2023-04-06T11:17:33;16.05;;;13.43;;
27543;SDS011;17996;51.056;3.656;2023-04-06T11:20:01;15.90;;;12.88;;
27543;SDS011;17996;51.056;3.656;2023-04-06T11:22:29;15.07;;;12.70;;
27543;SDS011;17996;51.056;3.656;2023-04-06T11:25:08;14.15;;;12.00;;
27543;SDS011;17996;51.056;3.656;2023-04-06T11:27:34;15.07;;;12.10;;
27543;SDS011;17996;51.056;3.656;2023-04-06T11:30:00;13.40;;;12.00;;
27543;SDS011;17996;51.056;3.656;2023-04-06T11:32:27;15.05;;;11.77;;
27543;SDS011;17996;51.056;3.656;2023-04-06T11:34:53;14.63;;;12.15;;
27543;SDS011;17996;51.056;3.656;2023-04-06T11:37:19;14.88;;;11.45;;
27543;SDS011;17996;51.056;3.656;2023-04-06T11:39:48;14.57;;;11.70;;
27543;SDS011;17996;51.056;3.656;2023-04-06T11:42:28;13.60;;;11.57;;
27543;SDS011;17996;51.056;3.656;2023-04-06T11:44:55;15.40;;;11.60;;
27543;SDS011;17996;51.056;3.656;2023-04-06T11:47:35;16.42;;;11.85;;
27543;SDS011;17996;51.056;3.656;2023-04-06T11:50:12;12.70;;;11.10;;
27543;SDS011;17996;51.056;3.656;2023-04-06T11:52:39;12.70;;;10.70;;
27543;SDS011;17996;51.056;3.656;2023-04-06T11:55:15;13.35;;;11.63;;
27543;SDS011;17996;51.056;3.656;2023-04-06T11:57:42;14.48;;;12.73;;
27543;SDS011;17996;51.056;3.656;2023-04-06T12:00:09;14.93;;;13.25;;
27543;SDS011;17996;51.056;3.656;2023-04-06T12:02:36;17.67;;;15.10;;
27543;SDS011;17996;51.056;3.656;2023-04-06T12:05:03;18.10;;;15.93;;
27543;SDS011;17996;51.056;3.656;2023-04-06T12:07:30;20.27;;;16.75;;
27543;SDS011;17996;51.056;3.656;2023-04-06T12:09:56;19.98;;;15.80;;
27543;SDS011;17996;51.056;3.656;2023-04-06T12:12:22;20.63;;;16.75;;
27543;SDS011;17996;51.056;3.656;2023-04-06T12:14:47;21.50;;;16.83;;
27543;SDS011;17996;51.056;3.656;2023-04-06T12:17:13;20.20;;;16.23;;
27543;SDS011;17996;51.056;3.656;2023-04-06T12:19:39;20.90;;;17.40;;
27543;SDS011;17996;51.056;3.656;2023-04-06T12:22:05;20.83;;;16.80;;
27543;SDS011;17996;51.056;3.656;2023-04-06T12:24:31;20.38;;;17.40;;
27543;SDS011;17996;51.056;3.656;2023-04-06T12:26:57;22.73;;;18.25;;
27543;SDS011;17996;51.056;3.656;2023-04-06T12:29:24;22.17;;;19.08;;
27543;SDS011;17996;51.056;3.656;2023-04-06T12:31:49;23.65;;;18.70;;
27543;SDS011;17996;51.056;3.656;2023-04-06T12:34:16;23.40;;;19.70;;
27543;SDS011;17996;51.056;3.656;2023-04-06T12:36:42;21.13;;;18.77;;
27543;SDS011;17996;51.056;3.656;2023-04-06T12:39:07;22.80;;;19.52;;
27543;SDS011;17996;51.056;3.656;2023-04-06T12:41:33;26.10;;;20.75;;
27543;SDS011;17996;51.056;3.656;2023-04-06T12:43:59;25.60;;;19.45;;
27543;SDS011;17996;51.056;3.656;2023-04-06T12:46:25;22.27;;;18.25;;
27543;SDS011;17996;51.056;3.656;2023-04-06T12:48:51;21.55;;;18.42;;
27543;SDS011;17996;51.056;3.656;2023-04-06T12:51:20;23.17;;;18.75;;
27543;SDS011;17996;51.056;3.656;2023-04-06T12:53:46;24.15;;;18.95;;
27543;SDS011;17996;51.056;3.656;2023-04-06T12:56:13;25.75;;;18.42;;
27543;SDS011;17996;51.056;3.656;2023-04-06T12:58:40;25.15;;;19.67;;
27543;SDS011;17996;51.056;3.656;2023-04-06T13:01:06;27.08;;;19.23;;
27543;SDS011;17996;51.056;3.656;2023-04-06T13:03:33;27.73;;;19.23;;
27543;SDS011;17996;51.056;3.656;2023-04-06T13:05:59;22.27;;;17.42;;
27543;SDS011;17996;51.056;3.656;2023-04-06T13:08:25;22.83;;;17.90;;
27543;SDS011;17996;51.056;3.656;2023-04-06T13:10:52;21.92;;;17.60;;
27543;SDS011;17996;51.056;3.656;2023-04-06T13:13:27;24.65;;;17.60;;
27543;SDS011;17996;51.056;3.656;2023-04-06T13:15:55;21.80;;;16.25;;
27543;SDS011;17996;51.056;3.656;2023-04-06T13:18:26;22.45;;;17.67;;
27543;SDS011;17996;51.056;3.656;2023-04-06T13:20:52;22.40;;;16.00;;
27543;SDS011;17996;51.056;3.656;2023-04-06T13:23:17;20.30;;;16.27;;
27543;SDS011;17996;51.056;3.656;2023-04-06T13:25:43;21.02;;;16.90;;
27543;SDS011;17996;51.056;3.656;2023-04-06T13:28:09;18.65;;;15.48;;
27543;SDS011;17996;51.056;3.656;2023-04-06T13:30:35;19.67;;;14.68;;
27543;SDS011;17996;51.056;3.656;2023-04-06T13:33:01;21.02;;;14.38;;
27543;SDS011;17996;51.056;3.656;2023-04-06T13:35:27;20.35;;;14.65;;
27543;SDS011;17996;51.056;3.656;2023-04-06T13:37:52;17.92;;;13.40;;
27543;SDS011;17996;51.056;3.656;2023-04-06T13:40:18;19.90;;;13.18;;
27543;SDS011;17996;51.056;3.656;2023-04-06T13:42:44;15.07;;;12.95;;
27543;SDS011;17996;51.056;3.656;2023-04-06T13:45:11;16.50;;;13.50;;
27543;SDS011;17996;51.056;3.656;2023-04-06T13:47:37;21.30;;;13.63;;
27543;SDS011;17996;51.056;3.656;2023-04-06T13:50:03;15.20;;;13.15;;
27543;SDS011;17996;51.056;3.656;2023-04-06T13:52:29;16.48;;;12.55;;
27543;SDS011;17996;51.056;3.656;2023-04-06T13:54:55;16.35;;;13.07;;
27543;SDS011;17996;51.056;3.656;2023-04-06T13:57:21;20.23;;;14.05;;
27543;SDS011;17996;51.056;3.656;2023-04-06T13:59:46;18.58;;;14.63;;
27543;SDS011;17996;51.056;3.656;2023-04-06T14:02:13;18.52;;;13.18;;
27543;SDS011;17996;51.056;3.656;2023-04-06T14:04:38;14.98;;;12.80;;
27543;SDS011;17996;51.056;3.656;2023-04-06T14:07:04;20.98;;;12.98;;
27543;SDS011;17996;51.056;3.656;2023-04-06T14:09:32;17.73;;;15.30;;
27543;SDS011;17996;51.056;3.656;2023-04-06T14:11:58;21.10;;;14.77;;
27543;SDS011;17996;51.056;3.656;2023-04-06T14:14:24;25.77;;;15.55;;
27543;SDS011;17996;51.056;3.656;2023-04-06T14:16:50;24.33;;;13.85;;
27543;SDS011;17996;51.056;3.656;2023-04-06T14:19:16;24.08;;;13.93;;
27543;SDS011;17996;51.056;3.656;2023-04-06T14:21:43;25.10;;;16.45;;
27543;SDS011;17996;51.056;3.656;2023-04-06T14:24:09;24.13;;;14.82;;
27543;SDS011;17996;51.056;3.656;2023-04-06T14:26:36;22.58;;;14.80;;
27543;SDS011;17996;51.056;3.656;2023-04-06T14:29:02;34.97;;;15.30;;
27543;SDS011;17996;51.056;3.656;2023-04-06T14:31:29;22.50;;;14.90;;